sensor_id;sensor_type;location;lat;lon;timestamp;P1;P2;P0
37775;PMS5003;23614;33.774;130.514;2022-08-06T19:49:54;9;5;
37775;PMS5003;23614;33.774;130.514;2022-08-06T19:52:20;6;6;
37775;PMS5003;23614;33.774;130.514;2022-08-06T19:54:45;5;5;
37775;PMS5003;23614;33.774;130.514;2022-08-06T19:57:11;7;7;
37775;PMS5003;23614;33.774;130.514;2022-08-06T19:59:37;6;5;
37775;PMS5003;23614;33.774;130.514;2022-08-06T20:02:03;6;6;
37775;PMS5003;23614;33.774;130.514;2022-08-06T20:04:29;6;5;
37775;PMS5003;23614;33.774;130.514;2022-08-06T20:06:55;6;5;
37775;PMS5003;23614;33.774;130.514;2022-08-06T20:09:21;6;6;
37775;PMS5003;23614;33.774;130.514;2022-08-06T20:11:47;6;6;
37775;PMS5003;23614;33.774;130.514;2022-08-06T20:14:13;6;6;
37775;PMS5003;23614;33.774;130.514;2022-08-06T20:16:39;5;5;
37775;PMS5003;23614;33.774;130.514;2022-08-06T20:19:05;7;6;
37775;PMS5003;23614;33.774;130.514;2022-08-06T20:21:31;5;5;
37775;PMS5003;23614;33.774;130.514;2022-08-06T20:23:57;4;4;
37775;PMS5003;23614;33.774;130.514;2022-08-06T20:26:23;5;5;
37775;PMS5003;23614;33.774;130.514;2022-08-06T20:28:49;5;5;
37775;PMS5003;23614;33.774;130.514;2022-08-06T20:31:15;6;6;
37775;PMS5003;23614;33.774;130.514;2022-08-06T20:33:41;6;5;
37775;PMS5003;23614;33.774;130.514;2022-08-06T20:36:07;7;7;
37775;PMS5003;23614;33.774;130.514;2022-08-06T20:38:33;6;6;
37775;PMS5003;23614;33.774;130.514;2022-08-06T20:40:59;6;6;
37775;PMS5003;23614;33.774;130.514;2022-08-06T20:43:25;6;6;
37775;PMS5003;23614;33.774;130.514;2022-08-06T20:45:51;6;5;
37775;PMS5003;23614;33.774;130.514;2022-08-06T20:48:17;4;3;
37775;PMS5003;23614;33.774;130.514;2022-08-06T20:50:44;7;7;
37775;PMS5003;23614;33.774;130.514;2022-08-06T20:53:09;7;7;
37775;PMS5003;23614;33.774;130.514;2022-08-06T20:55:35;8;8;
37775;PMS5003;23614;33.774;130.514;2022-08-06T20:58:01;5;5;
37775;PMS5003;23614;33.774;130.514;2022-08-06T21:00:27;6;6;
37775;PMS5003;23614;33.774;130.514;2022-08-06T21:02:53;7;6;
37775;PMS5003;23614;33.774;130.514;2022-08-06T21:05:19;6;6;
37775;PMS5003;23614;33.774;130.514;2022-08-06T21:07:46;6;5;
37775;PMS5003;23614;33.774;130.514;2022-08-06T21:10:11;6;6;
37775;PMS5003;23614;33.774;130.514;2022-08-06T21:12:37;6;6;
37775;PMS5003;23614;33.774;130.514;2022-08-06T21:15:04;7;6;
37775;PMS5003;23614;33.774;130.514;2022-08-06T21:17:29;7;6;
37775;PMS5003;23614;33.774;130.514;2022-08-06T21:19:55;5;5;
37775;PMS5003;23614;33.774;130.514;2022-08-06T21:22:21;8;7;
37775;PMS5003;23614;33.774;130.514;2022-08-06T21:24:47;7;7;
37775;PMS5003;23614;33.774;130.514;2022-08-06T21:27:13;6;5;
37775;PMS5003;23614;33.774;130.514;2022-08-06T21:29:39;4;4;
37775;PMS5003;23614;33.774;130.514;2022-08-06T21:32:05;7;7;
37775;PMS5003;23614;33.774;130.514;2022-08-06T21:34:31;6;6;
37775;PMS5003;23614;33.774;130.514;2022-08-06T21:49:07;7;7;
37775;PMS5003;23614;33.774;130.514;2022-08-06T21:51:34;7;7;
37775;PMS5003;23614;33.774;130.514;2022-08-06T21:53:59;7;7;
37775;PMS5003;23614;33.774;130.514;2022-08-06T21:56:26;8;8;
37775;PMS5003;23614;33.774;130.514;2022-08-06T21:58:51;5;5;
37775;PMS5003;23614;33.774;130.514;2022-08-06T22:01:17;8;7;
37775;PMS5003;23614;33.774;130.514;2022-08-06T22:03:43;7;7;
37775;PMS5003;23614;33.774;130.514;2022-08-06T22:06:09;7;6;
37775;PMS5003;23614;33.774;130.514;2022-08-06T22:08:35;6;6;
37775;PMS5003;23614;33.774;130.514;2022-08-06T22:11:02;8;7;
37775;PMS5003;23614;33.774;130.514;2022-08-06T22:13:27;6;6;
37775;PMS5003;23614;33.774;130.514;2022-08-06T22:15:53;9;9;
37775;PMS5003;23614;33.774;130.514;2022-08-06T22:18:19;7;7;
37775;PMS5003;23614;33.774;130.514;2022-08-06T22:20:45;6;6;
37775;PMS5003;23614;33.774;130.514;2022-08-06T22:23:11;9;9;
37775;PMS5003;23614;33.774;130.514;2022-08-06T22:25:37;9;8;
37775;PMS5003;23614;33.774;130.514;2022-08-06T22:28:03;8;8;
37775;PMS5003;23614;33.774;130.514;2022-08-06T22:30:29;7;7;
37775;PMS5003;23614;33.774;130.514;2022-08-06T22:32:55;6;6;
37775;PMS5003;23614;33.774;130.514;2022-08-06T22:35:21;8;7;
37775;PMS5003;23614;33.774;130.514;2022-08-06T22:37:47;8;8;
37775;PMS5003;23614;33.774;130.514;2022-08-06T22:40:13;6;6;
37775;PMS5003;23614;33.774;130.514;2022-08-06T22:42:39;5;5;
37775;PMS5003;23614;33.774;130.514;2022-08-06T22:45:06;6;6;
37775;PMS5003;23614;33.774;130.514;2022-08-06T22:47:31;6;6;
37775;PMS5003;23614;33.774;130.514;2022-08-06T22:49:57;6;6;
37775;PMS5003;23614;33.774;130.514;2022-08-06T22:52:24;8;6;
37775;PMS5003;23614;33.774;130.514;2022-08-06T22:54:49;6;6;
37775;PMS5003;23614;33.774;130.514;2022-08-06T22:57:16;4;4;
37775;PMS5003;23614;33.774;130.514;2022-08-06T22:59:41;6;6;
37775;PMS5003;23614;33.774;130.514;2022-08-06T23:02:08;7;6;
37775;PMS5003;23614;33.774;130.514;2022-08-06T23:04:33;7;7;
37775;PMS5003;23614;33.774;130.514;2022-08-06T23:07:00;7;7;
37775;PMS5003;23614;33.774;130.514;2022-08-06T23:09:25;7;7;
37775;PMS5003;23614;33.774;130.514;2022-08-06T23:11:51;10;10;
37775;PMS5003;23614;33.774;130.514;2022-08-06T23:14:17;9;8;
37775;PMS5003;23614;33.774;130.514;2022-08-06T23:16:43;8;7;
37775;PMS5003;23614;33.774;130.514;2022-08-06T23:19:09;7;7;
37775;PMS5003;23614;33.774;130.514;2022-08-06T23:21:35;9;8;
37775;PMS5003;23614;33.774;130.514;2022-08-06T23:24:02;11;10;
37775;PMS5003;23614;33.774;130.514;2022-08-06T23:26:27;10;9;
37775;PMS5003;23614;33.774;130.514;2022-08-06T23:28:53;9;9;
37775;PMS5003;23614;33.774;130.514;2022-08-06T23:31:19;10;8;
37775;PMS5003;23614;33.774;130.514;2022-08-06T23:33:46;10;9;
37775;PMS5003;23614;33.774;130.514;2022-08-06T23:36:11;10;9;
37775;PMS5003;23614;33.774;130.514;2022-08-06T23:38:37;10;10;
37775;PMS5003;23614;33.774;130.514;2022-08-06T23:41:03;7;7;
37775;PMS5003;23614;33.774;130.514;2022-08-06T23:43:29;9;9;
37775;PMS5003;23614;33.774;130.514;2022-08-06T23:45:55;10;10;
37775;PMS5003;23614;33.774;130.514;2022-08-06T23:48:21;11;11;
37775;PMS5003;23614;33.774;130.514;2022-08-06T23:50:47;13;12;
37775;PMS5003;23614;33.774;130.514;2022-08-06T23:53:13;9;9;
37775;PMS5003;23614;33.774;130.514;2022-08-06T23:55:39;9;9;
37775;PMS5003;23614;33.774;130.514;2022-08-06T23:58:05;10;8;
